Time;durP1;ratioP1;P1;durP2;ratioP2;P2;SDS_P1;SDS_P2;PMS_P1;PMS_P2;Temp;Humidity;BMP_temperature;BMP_pressure;BME280_temperature;BME280_humidity;BME280_pressure;Samples;Min_cycle;Max_cycle;Signal;HPM_P1;HPM_P2
2024/01/19 00:00:20;;;;;;;4.88;2.95;;;;;;;;;;5884593;28;20525;-81
2024/01/19 00:03:10;;;;;;;6.93;4.28;;;;;;;;;;5884393;28;20420;-81
2024/01/19 00:06:01;;;;;;;3.65;2.85;;;;;;;;;;5884557;28;20049;-81
2024/01/19 00:08:52;;;;;;;7.25;4.32;;;;;;;;;;5886244;28;20055;-81
2024/01/19 00:11:43;;;;;;;9.32;4.35;;;;;;;;;;5884469;28;20509;-81
2024/01/19 00:14:34;;;;;;;9.40;3.75;;;;;;;;;;5884336;28;20091;-81
2024/01/19 00:17:25;;;;;;;13.30;3.95;;;;;;;;;;5885705;28;20051;-81
2024/01/19 00:20:16;;;;;;;9.93;4.30;;;;;;;;;;5885699;28;20086;-81
2024/01/19 00:23:07;;;;;;;5.32;3.45;;;;;;;;;;5900836;28;20053;-81
2024/01/19 00:25:57;;;;;;;8.18;4.15;;;;;;;;;;5884878;28;20053;-81
2024/01/19 00:28:50;;;;;;;8.63;4.40;;;;;;;;;;5867829;28;20070;-81
2024/01/19 00:31:45;;;;;;;5.82;3.28;;;;;;;;;;5885744;28;20045;-81
2024/01/19 00:34:36;;;;;;;12.13;5.18;;;;;;;;;;5890670;28;20045;-81
2024/01/19 00:37:27;;;;;;;7.90;4.32;;;;;;;;;;5889033;28;20114;-81
2024/01/19 00:40:17;;;;;;;5.90;4.32;;;;;;;;;;5890259;28;20494;-81
2024/01/19 00:43:08;;;;;;;11.40;4.43;;;;;;;;;;5888821;28;20411;-81
2024/01/19 00:45:59;;;;;;;8.82;4.95;;;;;;;;;;5873062;28;20388;-81
2024/01/19 00:48:50;;;;;;;11.82;4.82;;;;;;;;;;5889067;28;20040;-81
2024/01/19 00:51:41;;;;;;;8.30;4.57;;;;;;;;;;5888896;28;20056;-81
2024/01/19 00:54:32;;;;;;;6.68;4.45;;;;;;;;;;5889725;28;20037;-81
2024/01/19 00:57:23;;;;;;;6.15;3.40;;;;;;;;;;5888578;28;20048;-81
2024/01/19 01:00:14;;;;;;;8.38;4.95;;;;;;;;;;5888179;28;20392;-81
2024/01/19 01:03:05;;;;;;;6.47;4.00;;;;;;;;;;5876667;28;20061;-81
2024/01/19 01:06:03;;;;;;;9.77;5.25;;;;;;;;;;5890054;28;20068;-81
2024/01/19 01:08:54;;;;;;;5.93;4.83;;;;;;;;;;5904741;28;20048;-81
2024/01/19 01:11:45;;;;;;;8.68;5.38;;;;;;;;;;5888271;28;20367;-81
2024/01/19 01:14:36;;;;;;;8.23;5.00;;;;;;;;;;5888424;28;20036;-81
2024/01/19 01:17:27;;;;;;;8.85;5.28;;;;;;;;;;5888475;28;20135;-81
2024/01/19 01:20:20;;;;;;;9.52;5.25;;;;;;;;;;5888230;28;20494;-81
2024/01/19 01:23:11;;;;;;;8.40;5.18;;;;;;;;;;5889528;28;20049;-81
2024/01/19 01:26:02;;;;;;;6.97;5.57;;;;;;;;;;5887668;28;20045;-81
2024/01/19 01:28:53;;;;;;;13.82;5.90;;;;;;;;;;5889760;28;20541;-81
2024/01/19 01:31:44;;;;;;;17.33;5.32;;;;;;;;;;5888133;28;20048;-81
2024/01/19 01:34:35;;;;;;;10.13;5.32;;;;;;;;;;5889325;28;20041;-82
2024/01/19 01:37:26;;;;;;;10.70;5.25;;;;;;;;;;5887978;28;20040;-81
2024/01/19 01:40:16;;;;;;;7.43;3.97;;;;;;;;;;5889083;28;20067;-81
2024/01/19 01:43:07;;;;;;;9.98;4.18;;;;;;;;;;5886088;28;20071;-81
2024/01/19 01:45:58;;;;;;;4.53;3.25;;;;;;;;;;5889505;28;20471;-81
2024/01/19 01:48:49;;;;;;;8.98;5.07;;;;;;;;;;5904230;28;20503;-81
2024/01/19 01:51:40;;;;;;;4.78;3.63;;;;;;;;;;5887500;28;20454;-81
2024/01/19 01:54:31;;;;;;;14.30;5.93;;;;;;;;;;5888606;28;20526;-81
2024/01/19 01:57:24;;;;;;;6.90;3.88;;;;;;;;;;5887252;28;20132;-81
2024/01/19 02:00:17;;;;;;;5.05;3.72;;;;;;;;;;5887206;28;20053;-81
2024/01/19 02:03:09;;;;;;;7.72;4.53;;;;;;;;;;5887167;28;20522;-81
2024/01/19 02:05:59;;;;;;;11.57;5.32;;;;;;;;;;5889031;28;20048;-81
2024/01/19 02:08:51;;;;;;;5.85;4.43;;;;;;;;;;5887391;28;20052;-81
2024/01/19 02:11:42;;;;;;;6.13;4.18;;;;;;;;;;5887042;28;20207;-81
2024/01/19 02:14:33;;;;;;;6.97;3.78;;;;;;;;;;5887184;28;20509;-81
2024/01/19 02:17:26;;;;;;;5.15;4.43;;;;;;;;;;5886994;28;20133;-81
2024/01/19 02:20:18;;;;;;;7.65;3.83;;;;;;;;;;5888326;28;20052;-81
2024/01/19 02:23:13;;;;;;;10.40;4.70;;;;;;;;;;5886829;28;20497;-81
2024/01/19 02:26:05;;;;;;;8.40;5.40;;;;;;;;;;5888210;28;20103;-81
2024/01/19 02:28:56;;;;;;;5.70;3.78;;;;;;;;;;5886947;28;20044;-81
2024/01/19 02:31:47;;;;;;;9.93;4.03;;;;;;;;;;5886844;28;20044;-81
2024/01/19 02:34:37;;;;;;;14.32;4.28;;;;;;;;;;5886482;28;20044;-81
2024/01/19 02:37:28;;;;;;;6.60;4.28;;;;;;;;;;5886257;28;20052;-81
2024/01/19 02:40:19;;;;;;;11.63;5.28;;;;;;;;;;5886478;28;20062;-81
2024/01/19 02:43:10;;;;;;;10.80;3.28;;;;;;;;;;5886268;28;20494;-81
2024/01/19 02:46:01;;;;;;;4.88;3.17;;;;;;;;;;5887811;28;20048;-81
2024/01/19 02:48:52;;;;;;;10.45;4.43;;;;;;;;;;5903264;28;20158;-81
2024/01/19 02:51:43;;;;;;;12.55;4.38;;;;;;;;;;5886113;28;20040;-81
2024/01/19 02:54:33;;;;;;;5.22;2.92;;;;;;;;;;5885471;28;20041;-82
2024/01/19 02:57:25;;;;;;;4.93;3.45;;;;;;;;;;5886437;28;20052;-81
2024/01/19 03:00:15;;;;;;;3.67;2.50;;;;;;;;;;5885979;28;20049;-80
2024/01/19 03:03:06;;;;;;;2.72;2.05;;;;;;;;;;5885852;28;20503;-80
2024/01/19 03:05:57;;;;;;;6.10;4.15;;;;;;;;;;5902860;28;20045;-80
2024/01/19 03:08:48;;;;;;;5.00;4.07;;;;;;;;;;5885983;28;20061;-80
2024/01/19 03:11:39;;;;;;;8.38;4.10;;;;;;;;;;5885703;28;20384;-80
2024/01/19 03:14:33;;;;;;;5.65;3.95;;;;;;;;;;5887002;28;20045;-80
2024/01/19 03:17:24;;;;;;;3.97;2.90;;;;;;;;;;5885650;28;20102;-80
2024/01/19 03:20:14;;;;;;;4.72;3.67;;;;;;;;;;5885627;28;20517;-80
2024/01/19 03:23:07;;;;;;;5.22;3.65;;;;;;;;;;5885385;28;20041;-80
2024/01/19 03:25:58;;;;;;;9.68;4.10;;;;;;;;;;5885991;28;20501;-80
2024/01/19 03:28:49;;;;;;;10.13;4.13;;;;;;;;;;5885482;28;20048;-80
2024/01/19 03:31:39;;;;;;;11.02;4.93;;;;;;;;;;5885342;28;20041;-80
2024/01/19 03:34:30;;;;;;;6.63;2.42;;;;;;;;;;5901825;28;20044;-80
2024/01/19 03:37:21;;;;;;;10.02;3.80;;;;;;;;;;5885449;28;20061;-80
2024/01/19 03:40:12;;;;;;;7.70;2.97;;;;;;;;;;5885324;28;20752;-80
2024/01/19 03:43:03;;;;;;;3.85;3.28;;;;;;;;;;5885001;28;20049;-80
2024/01/19 03:45:54;;;;;;;9.02;3.63;;;;;;;;;;5885654;28;20041;-80
2024/01/19 03:48:45;;;;;;;7.03;3.70;;;;;;;;;;5886251;28;20050;-80
2024/01/19 03:51:36;;;;;;;7.25;3.50;;;;;;;;;;5884794;28;20048;-80
2024/01/19 03:54:27;;;;;;;9.45;3.72;;;;;;;;;;5886212;28;20045;-80
2024/01/19 03:57:17;;;;;;;5.35;2.63;;;;;;;;;;5884670;28;20052;-80
2024/01/19 04:00:09;;;;;;;6.20;4.57;;;;;;;;;;5885959;28;20044;-80
2024/01/19 04:03:00;;;;;;;4.43;2.65;;;;;;;;;;5886624;28;20052;-80
2024/01/19 04:05:51;;;;;;;12.63;4.53;;;;;;;;;;5885209;28;20048;-80
2024/01/19 04:08:42;;;;;;;8.23;3.80;;;;;;;;;;5885644;28;20059;-80
2024/01/19 04:11:39;;;;;;;6.05;3.38;;;;;;;;;;5884594;28;20051;-80
2024/01/19 04:14:30;;;;;;;10.32;5.05;;;;;;;;;;5884843;28;20087;-80
2024/01/19 04:17:21;;;;;;;10.00;4.93;;;;;;;;;;5884566;28;20048;-80
2024/01/19 04:20:11;;;;;;;8.40;5.57;;;;;;;;;;5884524;28;20048;-80
2024/01/19 04:23:03;;;;;;;10.50;3.97;;;;;;;;;;5884359;28;20052;-80
2024/01/19 04:25:53;;;;;;;7.10;3.80;;;;;;;;;;5886319;28;20049;-80
2024/01/19 04:28:44;;;;;;;7.57;3.08;;;;;;;;;;5885382;28;20037;-80
2024/01/19 04:31:35;;;;;;;10.38;3.03;;;;;;;;;;5885829;28;20047;-81
2024/01/19 04:34:26;;;;;;;13.35;4.22;;;;;;;;;;5885727;28;20045;-81
2024/01/19 04:37:17;;;;;;;8.00;4.32;;;;;;;;;;5885703;28;20138;-80
2024/01/19 04:40:08;;;;;;;6.63;3.47;;;;;;;;;;5884099;28;20364;-81
2024/01/19 04:42:58;;;;;;;6.90;3.30;;;;;;;;;;5884567;28;20493;-80
2024/01/19 04:45:49;;;;;;;2.95;2.33;;;;;;;;;;5885711;28;20537;-80
2024/01/19 04:48:40;;;;;;;3.58;2.17;;;;;;;;;;5884374;28;20052;-80
2024/01/19 04:51:31;;;;;;;7.50;3.38;;;;;;;;;;5885592;28;20047;-80
2024/01/19 04:54:22;;;;;;;5.07;2.67;;;;;;;;;;5885553;28;20040;-80
2024/01/19 04:57:13;;;;;;;3.05;2.53;;;;;;;;;;5885284;28;20056;-81
2024/01/19 05:00:05;;;;;;;7.20;4.07;;;;;;;;;;5900627;28;20037;-80
2024/01/19 05:03:00;;;;;;;5.72;2.35;;;;;;;;;;5884609;28;20521;-80
2024/01/19 05:05:51;;;;;;;4.22;2.85;;;;;;;;;;5884633;28;20134;-80
2024/01/19 05:08:42;;;;;;;3.40;2.20;;;;;;;;;;5884167;28;20049;-80
2024/01/19 05:11:33;;;;;;;7.18;1.95;;;;;;;;;;5884089;28;20045;-80
2024/01/19 05:14:24;;;;;;;3.30;1.70;;;;;;;;;;5885409;28;20051;-81
2024/01/19 05:17:15;;;;;;;5.00;2.30;;;;;;;;;;5885825;28;20136;-80
2024/01/19 05:20:06;;;;;;;2.92;1.85;;;;;;;;;;5888406;28;20505;-80
2024/01/19 05:22:57;;;;;;;3.83;1.75;;;;;;;;;;5890004;28;20044;-80
2024/01/19 05:25:47;;;;;;;3.92;2.20;;;;;;;;;;5888197;28;20059;-80
2024/01/19 05:28:39;;;;;;;9.98;3.72;;;;;;;;;;5887802;28;20045;-80
2024/01/19 05:31:29;;;;;;;8.70;3.72;;;;;;;;;;5889407;28;20406;-80
2024/01/19 05:34:20;;;;;;;11.80;5.72;;;;;;;;;;5887912;28;20055;-80
2024/01/19 05:37:11;;;;;;;7.32;3.22;;;;;;;;;;5887808;28;20049;-80
2024/01/19 05:40:03;;;;;;;1.52;1.42;;;;;;;;;;5887807;28;20529;-80
2024/01/19 05:42:54;;;;;;;2.58;1.63;;;;;;;;;;5888022;28;20130;-80
2024/01/19 05:45:45;;;;;;;2.70;1.50;;;;;;;;;;5887292;28;20045;-80
2024/01/19 05:48:36;;;;;;;1.70;1.55;;;;;;;;;;5903910;28;20044;-80
2024/01/19 05:51:26;;;;;;;8.30;3.72;;;;;;;;;;5887464;28;20049;-80
2024/01/19 05:54:18;;;;;;;7.40;2.97;;;;;;;;;;5886894;28;20427;-80
2024/01/19 05:57:09;;;;;;;5.45;2.50;;;;;;;;;;5887097;28;20045;-80
2024/01/19 06:00:00;;;;;;;4.57;2.08;;;;;;;;;;5889114;28;20052;-80
2024/01/19 06:02:50;;;;;;;1.50;1.40;;;;;;;;;;5887248;28;20041;-80
2024/01/19 06:05:41;;;;;;;3.25;1.58;;;;;;;;;;5888070;28;20041;-80
2024/01/19 06:08:32;;;;;;;2.40;1.98;;;;;;;;;;5887085;28;20052;-80
2024/01/19 06:11:23;;;;;;;5.05;2.55;;;;;;;;;;5887088;28;20430;-80
2024/01/19 06:14:14;;;;;;;1.58;1.23;;;;;;;;;;5887074;28;20296;-80
2024/01/19 06:17:05;;;;;;;4.05;2.70;;;;;;;;;;5886729;28;20045;-79
2024/01/19 06:19:56;;;;;;;2.75;2.10;;;;;;;;;;5887321;28;20052;-79
2024/01/19 06:22:46;;;;;;;4.93;2.10;;;;;;;;;;5886659;28;20276;-79
2024/01/19 06:25:38;;;;;;;4.32;2.15;;;;;;;;;;5903210;28;20059;-79
2024/01/19 06:28:29;;;;;;;2.30;1.60;;;;;;;;;;5886087;28;20044;-79
2024/01/19 06:31:20;;;;;;;3.35;1.95;;;;;;;;;;5885944;28;20352;-79
2024/01/19 06:34:12;;;;;;;4.72;2.13;;;;;;;;;;5887485;28;20045;-79
2024/01/19 06:37:03;;;;;;;4.50;3.03;;;;;;;;;;5886683;28;20525;-79
2024/01/19 06:39:54;;;;;;;10.88;3.10;;;;;;;;;;5886934;28;20049;-79
2024/01/19 06:42:45;;;;;;;14.50;5.65;;;;;;;;;;5886027;28;20044;-79
2024/01/19 06:45:36;;;;;;;17.33;7.88;;;;;;;;;;5886005;28;20041;-79
2024/01/19 06:48:27;;;;;;;15.07;6.13;;;;;;;;;;5886254;28;20047;-79
2024/01/19 06:51:23;;;;;;;17.75;4.40;;;;;;;;;;5885889;28;20064;-79
2024/01/19 06:54:14;;;;;;;11.77;6.85;;;;;;;;;;5885831;28;20406;-79
2024/01/19 06:57:05;;;;;;;21.52;10.63;;;;;;;;;;5885671;28;20395;-79
2024/01/19 06:59:56;;;;;;;12.77;6.60;;;;;;;;;;5886326;28;20132;-79
2024/01/19 07:02:47;;;;;;;11.07;6.65;;;;;;;;;;5887263;28;20044;-79
2024/01/19 07:05:40;;;;;;;11.32;6.53;;;;;;;;;;5885744;28;20384;-79
2024/01/19 07:08:30;;;;;;;11.00;5.20;;;;;;;;;;5885548;28;20045;-79
2024/01/19 07:11:21;;;;;;;7.07;5.50;;;;;;;;;;5886941;28;20044;-79
2024/01/19 07:14:12;;;;;;;9.32;4.18;;;;;;;;;;5885593;28;20041;-79
2024/01/19 07:17:03;;;;;;;3.85;3.42;;;;;;;;;;5886885;28;20501;-79
2024/01/19 07:19:54;;;;;;;9.98;5.10;;;;;;;;;;5887097;28;20060;-79
2024/01/19 07:22:45;;;;;;;9.82;4.72;;;;;;;;;;5885033;28;20091;-79
2024/01/19 07:25:36;;;;;;;7.00;4.65;;;;;;;;;;5884796;28;20044;-79
2024/01/19 07:28:27;;;;;;;7.85;4.85;;;;;;;;;;5885384;28;20469;-79
2024/01/19 07:31:18;;;;;;;14.05;8.80;;;;;;;;;;5885153;28;20056;-79
2024/01/19 07:34:08;;;;;;;11.50;5.15;;;;;;;;;;5884904;28;20045;-79
2024/01/19 07:37:00;;;;;;;7.13;3.90;;;;;;;;;;5885533;28;20098;-79
2024/01/19 07:39:51;;;;;;;13.52;4.38;;;;;;;;;;5884779;28;20075;-79
2024/01/19 07:42:41;;;;;;;4.00;3.20;;;;;;;;;;5885985;28;20037;-79
2024/01/19 07:45:32;;;;;;;11.05;5.32;;;;;;;;;;5886024;28;20045;-79
2024/01/19 07:48:24;;;;;;;11.32;7.10;;;;;;;;;;5884730;28;20348;-79
2024/01/19 07:51:15;;;;;;;21.83;7.75;;;;;;;;;;5884603;28;20049;-79
2024/01/19 07:54:05;;;;;;;21.88;7.63;;;;;;;;;;5884260;28;20040;-79
2024/01/19 07:56:56;;;;;;;9.52;4.43;;;;;;;;;;5886312;28;20132;-79
2024/01/19 07:59:50;;;;;;;7.07;3.85;;;;;;;;;;5886080;28;20099;-79
2024/01/19 08:02:41;;;;;;;5.05;2.63;;;;;;;;;;5885653;28;20425;-78
2024/01/19 08:05:32;;;;;;;11.77;5.97;;;;;;;;;;5885638;28;20045;-78
2024/01/19 08:08:23;;;;;;;20.83;6.55;;;;;;;;;;5900870;28;20040;-79
2024/01/19 08:11:14;;;;;;;10.63;4.53;;;;;;;;;;5885685;28;20056;-79
2024/01/19 08:14:04;;;;;;;11.40;4.95;;;;;;;;;;5885450;28;20040;-79
2024/01/19 08:16:55;;;;;;;14.80;4.78;;;;;;;;;;5884762;28;20056;-79
2024/01/19 08:19:46;;;;;;;13.52;4.90;;;;;;;;;;5884159;28;20044;-79
2024/01/19 08:22:37;;;;;;;8.82;4.18;;;;;;;;;;5884063;28;20041;-79
2024/01/19 08:25:28;;;;;;;8.88;3.58;;;;;;;;;;5883885;28;20410;-79
2024/01/19 08:28:19;;;;;;;6.43;3.30;;;;;;;;;;5884047;28;20052;-78
2024/01/19 08:31:13;;;;;;;5.70;3.63;;;;;;;;;;5885267;28;20060;-79
2024/01/19 08:34:04;;;;;;;4.75;3.08;;;;;;;;;;5883863;28;20045;-79
2024/01/19 08:36:55;;;;;;;3.50;2.80;;;;;;;;;;5884671;28;20045;-79
2024/01/19 08:39:45;;;;;;;3.83;3.03;;;;;;;;;;5885236;28;20049;-79
2024/01/19 08:42:37;;;;;;;8.93;3.63;;;;;;;;;;5884216;28;20048;-78
2024/01/19 08:45:28;;;;;;;2.45;2.25;;;;;;;;;;5884100;28;20048;-78
2024/01/19 08:48:21;;;;;;;12.45;6.38;;;;;;;;;;5883887;28;20056;-79
2024/01/19 08:51:20;;;;;;;12.98;7.57;;;;;;;;;;5883746;28;20057;-79
2024/01/19 08:54:11;;;;;;;7.50;4.45;;;;;;;;;;5887556;28;20059;-79
2024/01/19 08:57:02;;;;;;;7.32;5.30;;;;;;;;;;5888424;28;20041;-79
2024/01/19 08:59:55;;;;;;;4.72;3.83;;;;;;;;;;5888918;28;20068;-79
2024/01/19 09:02:49;;;;;;;8.63;4.13;;;;;;;;;;5888059;28;20055;-79
2024/01/19 09:05:52;;;;;;;7.82;3.38;;;;;;;;;;5888747;28;20045;-78
2024/01/19 09:08:44;;;;;;;4.50;2.28;;;;;;;;;;5888231;28;20052;-79
2024/01/19 09:11:35;;;;;;;6.43;2.85;;;;;;;;;;5887942;28;20124;-79
2024/01/19 09:14:26;;;;;;;3.95;2.40;;;;;;;;;;5889423;28;20040;-79
2024/01/19 09:17:17;;;;;;;7.10;3.42;;;;;;;;;;5888123;28;20056;-79
2024/01/19 09:20:09;;;;;;;4.38;3.15;;;;;;;;;;5887907;28;20049;-78
2024/01/19 09:23:00;;;;;;;16.33;2.72;;;;;;;;;;5888587;28;20048;-79
2024/01/19 09:25:50;;;;;;;4.55;3.30;;;;;;;;;;5887996;28;20408;-79
2024/01/19 09:28:41;;;;;;;8.93;4.82;;;;;;;;;;5887744;28;20045;-79
2024/01/19 09:31:32;;;;;;;10.23;4.22;;;;;;;;;;5887967;28;20123;-79
2024/01/19 09:34:23;;;;;;;10.50;3.47;;;;;;;;;;5887711;28;20049;-78
2024/01/19 09:37:14;;;;;;;9.30;3.58;;;;;;;;;;5887630;28;20064;-79
2024/01/19 09:40:05;;;;;;;5.50;2.53;;;;;;;;;;5887613;28;20106;-79
2024/01/19 09:42:57;;;;;;;5.55;3.28;;;;;;;;;;5889091;28;20229;-79
2024/01/19 09:45:54;;;;;;;5.55;2.55;;;;;;;;;;5887707;28;20070;-79
2024/01/19 09:49:04;;;;;;;9.38;3.85;;;;;;;;;;5887780;28;20065;-79
2024/01/19 09:52:24;;;;;;;5.57;3.80;;;;;;;;;;5889047;28;20453;-79
2024/01/19 09:55:17;;;;;;;2.88;2.50;;;;;;;;;;5886807;28;20056;-79
2024/01/19 09:58:09;;;;;;;4.95;3.10;;;;;;;;;;5888686;28;20419;-79
2024/01/19 10:01:03;;;;;;;10.70;3.60;;;;;;;;;;5887471;28;20076;-79
2024/01/19 10:03:58;;;;;;;13.63;6.38;;;;;;;;;;5887608;28;20167;-79
2024/01/19 10:06:53;;;;;;;6.53;3.75;;;;;;;;;;5903302;28;20052;-79
2024/01/19 10:09:48;;;;;;;7.80;3.80;;;;;;;;;;5886934;28;20041;-79
2024/01/19 10:12:39;;;;;;;9.75;3.10;;;;;;;;;;5887002;28;20198;-79
2024/01/19 10:15:32;;;;;;;7.78;3.42;;;;;;;;;;5887142;28;20045;-79
2024/01/19 10:18:23;;;;;;;11.90;3.03;;;;;;;;;;5887165;28;20179;-79
2024/01/19 10:21:27;;;;;;;5.05;4.45;;;;;;;;;;5886980;28;20049;-79
2024/01/19 10:24:19;;;;;;;10.27;3.08;;;;;;;;;;5886525;28;20127;-79
2024/01/19 10:27:10;;;;;;;3.53;2.85;;;;;;;;;;5887765;28;20099;-79
2024/01/19 10:30:30;;;;;;;11.45;5.70;;;;;;;;;;5903025;28;20048;-79
2024/01/19 10:33:21;;;;;;;9.88;4.55;;;;;;;;;;5870003;28;20053;-79
2024/01/19 10:36:12;;;;;;;9.07;2.72;;;;;;;;;;5886381;28;20045;-79
2024/01/19 10:39:29;;;;;;;6.07;4.10;;;;;;;;;;5886560;28;20048;-79
2024/01/19 10:42:20;;;;;;;7.82;3.90;;;;;;;;;;5866946;28;20044;-79
2024/01/19 10:45:23;;;;;;;4.95;3.35;;;;;;;;;;5885978;28;20462;-79
2024/01/19 10:48:26;;;;;;;7.88;2.55;;;;;;;;;;5902686;28;20049;-79
2024/01/19 10:51:21;;;;;;;2.83;2.22;;;;;;;;;;5886332;28;20052;-80
2024/01/19 10:54:23;;;;;;;4.30;2.30;;;;;;;;;;5885758;28;20088;-79
2024/01/19 10:57:15;;;;;;;8.00;3.13;;;;;;;;;;5887586;28;20475;-79
2024/01/19 11:00:38;;;;;;;4.15;3.40;;;;;;;;;;5885698;28;20049;-79
2024/01/19 11:03:29;;;;;;;7.65;3.47;;;;;;;;;;5832616;28;20045;-79
2024/01/19 11:06:21;;;;;;;7.05;3.47;;;;;;;;;;5885896;28;20186;-79
2024/01/19 11:09:12;;;;;;;4.35;2.83;;;;;;;;;;5885817;28;20119;-79
2024/01/19 11:12:08;;;;;;;5.45;3.63;;;;;;;;;;5885989;28;20487;-79
2024/01/19 11:15:01;;;;;;;4.07;2.75;;;;;;;;;;5885687;28;20037;-79
2024/01/19 11:17:56;;;;;;;5.32;3.45;;;;;;;;;;5885887;28;20047;-79
2024/01/19 11:20:48;;;;;;;8.05;4.32;;;;;;;;;;5901936;28;20048;-79
2024/01/19 11:23:40;;;;;;;6.68;2.90;;;;;;;;;;5886710;28;20045;-79
2024/01/19 11:26:41;;;;;;;7.20;3.38;;;;;;;;;;5901858;28;20049;-79
2024/01/19 11:29:38;;;;;;;8.90;3.90;;;;;;;;;;5886668;28;20072;-79
2024/01/19 11:32:29;;;;;;;8.20;3.53;;;;;;;;;;5901731;28;20186;-79
2024/01/19 11:35:42;;;;;;;8.98;3.88;;;;;;;;;;5884932;28;20454;-78
2024/01/19 11:38:42;;;;;;;4.78;3.20;;;;;;;;;;5885258;28;20048;-79
2024/01/19 11:41:33;;;;;;;10.10;3.65;;;;;;;;;;5886431;28;20071;-79
2024/01/19 11:44:42;;;;;;;7.28;3.75;;;;;;;;;;5886218;28;20126;-79
2024/01/19 11:47:38;;;;;;;7.63;2.38;;;;;;;;;;5885192;28;20051;-79
2024/01/19 11:50:46;;;;;;;11.50;4.13;;;;;;;;;;5886093;28;20053;-79
2024/01/19 11:53:55;;;;;;;9.95;4.15;;;;;;;;;;5901509;28;20059;-78
2024/01/19 11:56:46;;;;;;;6.60;4.13;;;;;;;;;;5901164;28;20084;-79
2024/01/19 11:59:39;;;;;;;10.32;5.10;;;;;;;;;;5886314;28;20128;-79
2024/01/19 12:02:36;;;;;;;16.23;6.50;;;;;;;;;;5884678;28;20048;-79
2024/01/19 12:05:27;;;;;;;8.68;3.50;;;;;;;;;;5884631;28;20041;-79
2024/01/19 12:08:18;;;;;;;6.20;4.45;;;;;;;;;;5884681;28;20078;-79
2024/01/19 12:11:12;;;;;;;6.85;4.88;;;;;;;;;;5884633;28;20499;-79
2024/01/19 12:14:05;;;;;;;18.13;7.63;;;;;;;;;;5884556;28;20044;-79
2024/01/19 12:16:56;;;;;;;7.68;4.82;;;;;;;;;;5886361;28;20048;-78
2024/01/19 12:19:52;;;;;;;10.05;5.72;;;;;;;;;;5884410;28;20044;-78
2024/01/19 12:22:52;;;;;;;9.18;4.82;;;;;;;;;;5885599;28;20072;-79
2024/01/19 12:25:43;;;;;;;8.77;3.38;;;;;;;;;;5900756;28;20121;-78
2024/01/19 12:28:34;;;;;;;10.90;4.30;;;;;;;;;;5885184;28;20037;-78
2024/01/19 12:31:36;;;;;;;15.07;3.80;;;;;;;;;;5884241;28;20040;-79
2024/01/19 12:34:27;;;;;;;3.88;3.20;;;;;;;;;;5885584;28;20047;-79
2024/01/19 12:37:18;;;;;;;5.82;2.90;;;;;;;;;;5884279;28;20243;-79
2024/01/19 12:40:19;;;;;;;6.47;2.65;;;;;;;;;;5885606;28;20099;-79
2024/01/19 12:43:10;;;;;;;3.55;2.03;;;;;;;;;;5900620;28;20053;-78
2024/01/19 12:46:03;;;;;;;8.73;3.38;;;;;;;;;;5900450;28;20064;-79
2024/01/19 12:49:02;;;;;;;12.15;4.95;;;;;;;;;;5901210;28;20049;-79
2024/01/19 12:51:54;;;;;;;10.02;3.92;;;;;;;;;;5884119;28;20045;-79
2024/01/19 12:54:45;;;;;;;14.90;5.80;;;;;;;;;;5883879;28;20045;-79
2024/01/19 12:57:35;;;;;;;9.75;4.63;;;;;;;;;;5883990;28;20175;-79
2024/01/19 13:00:30;;;;;;;8.95;5.00;;;;;;;;;;5883894;28;20048;-79
2024/01/19 13:03:21;;;;;;;6.25;3.83;;;;;;;;;;5885286;28;20053;-79
2024/01/19 13:06:12;;;;;;;14.32;5.63;;;;;;;;;;5883657;28;20415;-79
2024/01/19 13:09:04;;;;;;;13.77;5.95;;;;;;;;;;5883963;28;20053;-79
2024/01/19 13:12:10;;;;;;;4.22;3.67;;;;;;;;;;5884474;28;20053;-79
2024/01/19 13:15:06;;;;;;;4.03;3.47;;;;;;;;;;5884895;28;20765;-79
2024/01/19 13:18:21;;;;;;;9.15;5.38;;;;;;;;;;5884315;28;20095;-79
2024/01/19 13:21:14;;;;;;;9.10;4.05;;;;;;;;;;5899237;28;20052;-79
2024/01/19 13:24:05;;;;;;;5.28;3.22;;;;;;;;;;5867266;28;20341;-79
2024/01/19 13:27:05;;;;;;;8.95;3.30;;;;;;;;;;5885189;28;20064;-79
2024/01/19 13:29:55;;;;;;;9.48;4.43;;;;;;;;;;5867181;28;20041;-79
2024/01/19 13:32:46;;;;;;;12.20;5.60;;;;;;;;;;5883705;28;20045;-79
2024/01/19 13:35:37;;;;;;;5.15;4.05;;;;;;;;;;5883293;28;20122;-79
2024/01/19 13:38:28;;;;;;;10.55;5.85;;;;;;;;;;5884418;28;20055;-79
2024/01/19 13:41:19;;;;;;;9.23;4.00;;;;;;;;;;5887719;28;20449;-79
2024/01/19 13:44:10;;;;;;;4.00;2.78;;;;;;;;;;5887695;28;20406;-79
2024/01/19 13:47:01;;;;;;;10.48;4.32;;;;;;;;;;5887536;28;20549;-79
2024/01/19 13:49:52;;;;;;;11.93;4.38;;;;;;;;;;5888003;28;20044;-79
2024/01/19 13:52:44;;;;;;;6.10;4.30;;;;;;;;;;5887276;28;20052;-79
2024/01/19 13:55:35;;;;;;;19.13;6.13;;;;;;;;;;5887063;28;20048;-79
2024/01/19 13:58:26;;;;;;;15.00;6.47;;;;;;;;;;5887328;28;20055;-79
2024/01/19 14:01:18;;;;;;;13.02;5.45;;;;;;;;;;5903582;28;20057;-79
2024/01/19 14:04:09;;;;;;;18.27;7.22;;;;;;;;;;5887296;28;20056;-79
2024/01/19 14:07:02;;;;;;;13.65;6.32;;;;;;;;;;5887557;28;20056;-79
2024/01/19 14:09:53;;;;;;;11.05;6.03;;;;;;;;;;5888821;28;20522;-79
2024/01/19 14:12:45;;;;;;;6.90;4.68;;;;;;;;;;5887078;28;20557;-79
2024/01/19 14:15:37;;;;;;;9.45;4.78;;;;;;;;;;5887010;28;20058;-79
2024/01/19 14:18:38;;;;;;;7.40;4.60;;;;;;;;;;5887218;28;20410;-79
2024/01/19 14:21:29;;;;;;;12.32;5.07;;;;;;;;;;5886985;28;20547;-79
2024/01/19 14:24:20;;;;;;;15.30;7.25;;;;;;;;;;5888027;28;20053;-79
2024/01/19 14:27:11;;;;;;;33.33;14.18;;;;;;;;;;5886572;28;20049;-79
2024/01/19 14:30:03;;;;;;;23.23;11.25;;;;;;;;;;5887852;28;20055;-79
2024/01/19 14:32:55;;;;;;;22.00;11.18;;;;;;;;;;5887158;28;20045;-79
2024/01/19 14:35:47;;;;;;;24.95;10.82;;;;;;;;;;5887889;28;20045;-79
2024/01/19 14:38:38;;;;;;;23.58;9.80;;;;;;;;;;5886907;28;20052;-79
2024/01/19 14:41:34;;;;;;;26.98;11.55;;;;;;;;;;5887606;28;20045;-79
2024/01/19 14:44:25;;;;;;;33.67;16.17;;;;;;;;;;5902842;28;20051;-79
2024/01/19 14:47:16;;;;;;;40.60;20.33;;;;;;;;;;5887490;28;20076;-79
2024/01/19 14:50:08;;;;;;;59.40;20.73;;;;;;;;;;5886908;28;20174;-79
2024/01/19 14:53:00;;;;;;;32.28;14.90;;;;;;;;;;5887934;28;20052;-79
2024/01/19 14:55:53;;;;;;;20.08;9.98;;;;;;;;;;5887929;28;20479;-79
2024/01/19 14:58:43;;;;;;;13.05;6.65;;;;;;;;;;5887344;28;20167;-79
2024/01/19 15:01:34;;;;;;;16.67;6.47;;;;;;;;;;5887439;28;20048;-79
2024/01/19 15:04:25;;;;;;;11.02;7.07;;;;;;;;;;5887238;28;20056;-79
2024/01/19 15:07:16;;;;;;;16.33;7.20;;;;;;;;;;5886959;28;20518;-79
2024/01/19 15:10:09;;;;;;;10.65;6.07;;;;;;;;;;5885733;28;20052;-79
2024/01/19 15:13:01;;;;;;;8.85;5.20;;;;;;;;;;5886440;28;20133;-79
2024/01/19 15:15:52;;;;;;;12.40;7.03;;;;;;;;;;5885796;28;20064;-79
2024/01/19 15:18:43;;;;;;;19.98;10.05;;;;;;;;;;5886987;28;20056;-79
2024/01/19 15:21:33;;;;;;;16.75;8.23;;;;;;;;;;5885390;28;20052;-79
2024/01/19 15:24:24;;;;;;;14.55;8.98;;;;;;;;;;5885799;28;20051;-79
2024/01/19 15:27:15;;;;;;;19.75;9.38;;;;;;;;;;5885216;28;20383;-79
2024/01/19 15:30:07;;;;;;;15.70;8.43;;;;;;;;;;5886464;28;20041;-79
2024/01/19 15:32:57;;;;;;;23.63;12.18;;;;;;;;;;5887106;28;20045;-79
2024/01/19 15:35:48;;;;;;;19.13;9.43;;;;;;;;;;5885505;28;20651;-79
2024/01/19 15:38:39;;;;;;;36.03;12.98;;;;;;;;;;5886168;28;20048;-79
2024/01/19 15:41:30;;;;;;;27.15;13.60;;;;;;;;;;5885284;28;20148;-79
2024/01/19 15:44:20;;;;;;;35.50;15.85;;;;;;;;;;5884898;28;20053;-79
2024/01/19 15:47:11;;;;;;;33.65;14.27;;;;;;;;;;5884906;28;20052;-79
2024/01/19 15:50:04;;;;;;;33.70;15.48;;;;;;;;;;5884971;28;20043;-79
2024/01/19 15:52:57;;;;;;;30.90;14.95;;;;;;;;;;5885775;28;20071;-79
2024/01/19 15:55:48;;;;;;;28.38;13.18;;;;;;;;;;5885011;28;20055;-79
2024/01/19 15:58:38;;;;;;;23.73;10.30;;;;;;;;;;5885003;28;20041;-79
2024/01/19 16:01:29;;;;;;;17.63;9.38;;;;;;;;;;5885321;28;20053;-79
2024/01/19 16:04:20;;;;;;;30.48;10.43;;;;;;;;;;5884348;28;20087;-79
2024/01/19 16:07:11;;;;;;;30.05;13.30;;;;;;;;;;5884488;28;20051;-79
2024/01/19 16:10:02;;;;;;;33.03;14.85;;;;;;;;;;5884675;28;20045;-79
2024/01/19 16:12:53;;;;;;;42.90;17.08;;;;;;;;;;5885194;28;20044;-79
2024/01/19 16:15:44;;;;;;;47.00;17.50;;;;;;;;;;5884235;28;20045;-79
2024/01/19 16:18:36;;;;;;;42.35;20.38;;;;;;;;;;5885831;28;20407;-78
2024/01/19 16:21:27;;;;;;;58.55;22.63;;;;;;;;;;5884198;28;20060;-78
2024/01/19 16:24:18;;;;;;;50.35;22.00;;;;;;;;;;5884328;28;20063;-78
2024/01/19 16:27:10;;;;;;;67.45;22.30;;;;;;;;;;5883711;28;20060;-78
2024/01/19 16:30:01;;;;;;;62.58;20.08;;;;;;;;;;5884377;28;20055;-78
2024/01/19 16:32:52;;;;;;;65.60;22.08;;;;;;;;;;5884747;28;20041;-78
2024/01/19 16:35:43;;;;;;;54.45;19.45;;;;;;;;;;5885245;28;20506;-78
2024/01/19 16:38:34;;;;;;;50.88;19.80;;;;;;;;;;5884431;28;20064;-78
2024/01/19 16:41:25;;;;;;;39.60;19.15;;;;;;;;;;5883872;28;20049;-79
2024/01/19 16:44:15;;;;;;;40.13;17.05;;;;;;;;;;5884177;28;20053;-79
2024/01/19 16:47:06;;;;;;;80.60;24.13;;;;;;;;;;5883999;28;20400;-79
2024/01/19 16:49:57;;;;;;;57.03;23.00;;;;;;;;;;5885857;28;20048;-78
2024/01/19 16:52:48;;;;;;;60.80;21.23;;;;;;;;;;5900535;28;20143;-79
2024/01/19 16:55:39;;;;;;;58.05;22.42;;;;;;;;;;5883910;28;20553;-79
2024/01/19 16:58:29;;;;;;;56.83;22.80;;;;;;;;;;5884159;28;20074;-78
2024/01/19 17:01:23;;;;;;;67.85;21.90;;;;;;;;;;5884804;28;20148;-79
2024/01/19 17:04:14;;;;;;;63.60;25.20;;;;;;;;;;5883878;28;20049;-79